sensor_id;sensor_type;location;lat;lon;timestamp;P1;durP1;ratioP1;P2;durP2;ratioP2
69795;SDS011;57073;45.650;9.612;2022-07-06T00:01:42;8.43;;;3.30;;
69795;SDS011;57073;45.650;9.612;2022-07-06T00:03:42;9.00;;;3.00;;
69795;SDS011;57073;45.650;9.612;2022-07-06T00:05:43;6.60;;;3.10;;
69795;SDS011;57073;45.650;9.612;2022-07-06T00:07:43;8.63;;;2.93;;
69795;SDS011;57073;45.650;9.612;2022-07-06T00:09:43;4.87;;;2.90;;
69795;SDS011;57073;45.650;9.612;2022-07-06T00:11:43;4.97;;;3.03;;
69795;SDS011;57073;45.650;9.612;2022-07-06T00:13:44;6.93;;;2.80;;
69795;SDS011;57073;45.650;9.612;2022-07-06T00:15:44;5.77;;;3.10;;
69795;SDS011;57073;45.650;9.612;2022-07-06T00:17:44;6.03;;;2.87;;
69795;SDS011;57073;45.650;9.612;2022-07-06T00:19:44;5.37;;;3.13;;
69795;SDS011;57073;45.650;9.612;2022-07-06T00:21:45;5.87;;;2.83;;
69795;SDS011;57073;45.650;9.612;2022-07-06T00:23:45;6.07;;;2.90;;
69795;SDS011;57073;45.650;9.612;2022-07-06T00:25:45;5.47;;;2.90;;
69795;SDS011;57073;45.650;9.612;2022-07-06T00:27:46;4.43;;;2.80;;
69795;SDS011;57073;45.650;9.612;2022-07-06T00:29:46;4.93;;;2.70;;
69795;SDS011;57073;45.650;9.612;2022-07-06T00:31:46;4.90;;;2.90;;
69795;SDS011;57073;45.650;9.612;2022-07-06T00:33:47;5.25;;;2.63;;
69795;SDS011;57073;45.650;9.612;2022-07-06T00:35:47;5.60;;;2.80;;
69795;SDS011;57073;45.650;9.612;2022-07-06T00:37:47;4.60;;;3.00;;
69795;SDS011;57073;45.650;9.612;2022-07-06T00:39:49;9.02;;;3.20;;
69795;SDS011;57073;45.650;9.612;2022-07-06T00:41:49;7.27;;;3.20;;
69795;SDS011;57073;45.650;9.612;2022-07-06T00:43:53;8.20;;;3.43;;
69795;SDS011;57073;45.650;9.612;2022-07-06T00:45:57;7.15;;;3.13;;
69795;SDS011;57073;45.650;9.612;2022-07-06T00:47:57;7.70;;;3.20;;
69795;SDS011;57073;45.650;9.612;2022-07-06T00:49:57;7.33;;;3.00;;
69795;SDS011;57073;45.650;9.612;2022-07-06T00:52:16;5.95;;;3.03;;
69795;SDS011;57073;45.650;9.612;2022-07-06T00:54:17;6.13;;;2.87;;
69795;SDS011;57073;45.650;9.612;2022-07-06T00:56:17;5.13;;;2.90;;
69795;SDS011;57073;45.650;9.612;2022-07-06T00:58:18;4.87;;;3.00;;
69795;SDS011;57073;45.650;9.612;2022-07-06T01:00:20;6.38;;;2.60;;
69795;SDS011;57073;45.650;9.612;2022-07-06T01:02:21;6.10;;;2.80;;
69795;SDS011;57073;45.650;9.612;2022-07-06T01:04:22;6.90;;;3.30;;
69795;SDS011;57073;45.650;9.612;2022-07-06T01:06:22;6.17;;;2.70;;
69795;SDS011;57073;45.650;9.612;2022-07-06T01:08:23;6.47;;;2.80;;
69795;SDS011;57073;45.650;9.612;2022-07-06T01:10:23;10.23;;;3.40;;
69795;SDS011;57073;45.650;9.612;2022-07-06T01:12:23;8.57;;;2.80;;
69795;SDS011;57073;45.650;9.612;2022-07-06T01:14:24;7.85;;;2.55;;
69795;SDS011;57073;45.650;9.612;2022-07-06T01:16:24;6.93;;;2.50;;
69795;SDS011;57073;45.650;9.612;2022-07-06T01:18:25;8.17;;;2.60;;
69795;SDS011;57073;45.650;9.612;2022-07-06T01:20:25;8.70;;;3.20;;
69795;SDS011;57073;45.650;9.612;2022-07-06T01:22:25;6.40;;;2.23;;
69795;SDS011;57073;45.650;9.612;2022-07-06T01:24:26;3.83;;;2.30;;
69795;SDS011;57073;45.650;9.612;2022-07-06T01:26:26;7.70;;;2.60;;
69795;SDS011;57073;45.650;9.612;2022-07-06T01:28:26;6.63;;;2.47;;
69795;SDS011;57073;45.650;9.612;2022-07-06T01:30:27;4.73;;;2.50;;
69795;SDS011;57073;45.650;9.612;2022-07-06T01:32:27;6.93;;;2.43;;
69795;SDS011;57073;45.650;9.612;2022-07-06T01:34:27;5.10;;;2.23;;
69795;SDS011;57073;45.650;9.612;2022-07-06T01:36:28;6.00;;;2.20;;
69795;SDS011;57073;45.650;9.612;2022-07-06T01:38:28;6.27;;;2.60;;
69795;SDS011;57073;45.650;9.612;2022-07-06T01:40:28;6.03;;;2.50;;
69795;SDS011;57073;45.650;9.612;2022-07-06T01:42:28;4.23;;;2.13;;
69795;SDS011;57073;45.650;9.612;2022-07-06T01:44:29;4.27;;;2.30;;
69795;SDS011;57073;45.650;9.612;2022-07-06T01:46:30;4.27;;;2.10;;
69795;SDS011;57073;45.650;9.612;2022-07-06T01:48:30;5.80;;;2.13;;
69795;SDS011;57073;45.650;9.612;2022-07-06T01:50:30;6.50;;;2.10;;
69795;SDS011;57073;45.650;9.612;2022-07-06T01:52:30;4.63;;;2.37;;
69795;SDS011;57073;45.650;9.612;2022-07-06T01:54:31;5.40;;;2.57;;
69795;SDS011;57073;45.650;9.612;2022-07-06T01:56:31;4.67;;;2.50;;
69795;SDS011;57073;45.650;9.612;2022-07-06T01:58:31;3.27;;;2.40;;
69795;SDS011;57073;45.650;9.612;2022-07-06T02:00:31;8.03;;;2.70;;
69795;SDS011;57073;45.650;9.612;2022-07-06T02:02:32;3.23;;;2.17;;
69795;SDS011;57073;45.650;9.612;2022-07-06T02:04:32;2.97;;;2.17;;
69795;SDS011;57073;45.650;9.612;2022-07-06T02:06:32;2.60;;;2.20;;
69795;SDS011;57073;45.650;9.612;2022-07-06T02:08:33;4.00;;;2.20;;
69795;SDS011;57073;45.650;9.612;2022-07-06T02:10:34;4.63;;;2.40;;
69795;SDS011;57073;45.650;9.612;2022-07-06T02:12:34;5.00;;;2.10;;
69795;SDS011;57073;45.650;9.612;2022-07-06T02:14:34;8.53;;;2.30;;
69795;SDS011;57073;45.650;9.612;2022-07-06T02:16:34;11.20;;;2.90;;
69795;SDS011;57073;45.650;9.612;2022-07-06T02:18:35;9.27;;;2.43;;
69795;SDS011;57073;45.650;9.612;2022-07-06T02:20:35;6.83;;;2.53;;
69795;SDS011;57073;45.650;9.612;2022-07-06T02:22:35;7.53;;;2.40;;
69795;SDS011;57073;45.650;9.612;2022-07-06T02:24:35;10.33;;;2.27;;
69795;SDS011;57073;45.650;9.612;2022-07-06T02:26:35;6.97;;;2.20;;
69795;SDS011;57073;45.650;9.612;2022-07-06T02:28:36;6.63;;;2.23;;
69795;SDS011;57073;45.650;9.612;2022-07-06T02:30:36;3.40;;;2.20;;
69795;SDS011;57073;45.650;9.612;2022-07-06T02:32:36;3.50;;;2.03;;
69795;SDS011;57073;45.650;9.612;2022-07-06T02:34:36;4.90;;;2.00;;
69795;SDS011;57073;45.650;9.612;2022-07-06T02:36:37;3.27;;;2.00;;
69795;SDS011;57073;45.650;9.612;2022-07-06T02:38:37;2.83;;;2.07;;
69795;SDS011;57073;45.650;9.612;2022-07-06T02:40:37;6.70;;;2.20;;
69795;SDS011;57073;45.650;9.612;2022-07-06T02:42:38;3.85;;;2.30;;
69795;SDS011;57073;45.650;9.612;2022-07-06T02:44:38;2.90;;;2.07;;
69795;SDS011;57073;45.650;9.612;2022-07-06T02:46:38;3.30;;;2.23;;
69795;SDS011;57073;45.650;9.612;2022-07-06T02:48:39;3.20;;;2.07;;
69795;SDS011;57073;45.650;9.612;2022-07-06T02:50:39;4.43;;;2.13;;
69795;SDS011;57073;45.650;9.612;2022-07-06T02:52:39;4.37;;;2.20;;
69795;SDS011;57073;45.650;9.612;2022-07-06T02:54:39;4.03;;;1.90;;
69795;SDS011;57073;45.650;9.612;2022-07-06T02:56:40;3.50;;;2.10;;
69795;SDS011;57073;45.650;9.612;2022-07-06T02:58:40;3.10;;;2.07;;
69795;SDS011;57073;45.650;9.612;2022-07-06T03:00:40;2.70;;;2.10;;
69795;SDS011;57073;45.650;9.612;2022-07-06T03:02:40;5.80;;;2.30;;
69795;SDS011;57073;45.650;9.612;2022-07-06T03:04:41;3.40;;;1.92;;
69795;SDS011;57073;45.650;9.612;2022-07-06T03:06:41;3.13;;;2.10;;
69795;SDS011;57073;45.650;9.612;2022-07-06T03:08:41;2.90;;;2.27;;
69795;SDS011;57073;45.650;9.612;2022-07-06T03:10:41;3.27;;;2.10;;
69795;SDS011;57073;45.650;9.612;2022-07-06T03:12:42;2.30;;;2.10;;
69795;SDS011;57073;45.650;9.612;2022-07-06T03:14:42;4.63;;;1.90;;
69795;SDS011;57073;45.650;9.612;2022-07-06T03:16:42;4.43;;;2.10;;
69795;SDS011;57073;45.650;9.612;2022-07-06T03:18:42;4.17;;;2.07;;
69795;SDS011;57073;45.650;9.612;2022-07-06T03:20:43;3.40;;;1.80;;
69795;SDS011;57073;45.650;9.612;2022-07-06T03:22:43;2.57;;;1.90;;
69795;SDS011;57073;45.650;9.612;2022-07-06T03:24:43;6.23;;;3.00;;
69795;SDS011;57073;45.650;9.612;2022-07-06T03:26:44;7.23;;;3.10;;
69795;SDS011;57073;45.650;9.612;2022-07-06T03:28:44;6.23;;;2.97;;
69795;SDS011;57073;45.650;9.612;2022-07-06T03:30:44;7.47;;;3.00;;
69795;SDS011;57073;45.650;9.612;2022-07-06T03:32:44;9.03;;;3.47;;
69795;SDS011;57073;45.650;9.612;2022-07-06T03:34:44;10.70;;;3.10;;
69795;SDS011;57073;45.650;9.612;2022-07-06T03:36:45;5.40;;;2.73;;
69795;SDS011;57073;45.650;9.612;2022-07-06T03:38:45;8.83;;;3.10;;
69795;SDS011;57073;45.650;9.612;2022-07-06T03:40:45;4.50;;;2.63;;
69795;SDS011;57073;45.650;9.612;2022-07-06T03:42:45;4.67;;;2.50;;
69795;SDS011;57073;45.650;9.612;2022-07-06T03:44:46;5.90;;;2.53;;
69795;SDS011;57073;45.650;9.612;2022-07-06T03:46:46;3.40;;;2.20;;
69795;SDS011;57073;45.650;9.612;2022-07-06T03:48:46;5.60;;;2.57;;
69795;SDS011;57073;45.650;9.612;2022-07-06T03:50:46;5.63;;;2.40;;
69795;SDS011;57073;45.650;9.612;2022-07-06T03:52:47;5.73;;;2.40;;
69795;SDS011;57073;45.650;9.612;2022-07-06T03:54:47;3.87;;;2.13;;
69795;SDS011;57073;45.650;9.612;2022-07-06T03:56:47;3.40;;;2.10;;
69795;SDS011;57073;45.650;9.612;2022-07-06T03:58:47;4.03;;;1.90;;
69795;SDS011;57073;45.650;9.612;2022-07-06T04:00:47;5.40;;;2.23;;
69795;SDS011;57073;45.650;9.612;2022-07-06T04:02:48;4.13;;;1.80;;
69795;SDS011;57073;45.650;9.612;2022-07-06T04:04:48;5.73;;;1.70;;
69795;SDS011;57073;45.650;9.612;2022-07-06T04:06:48;4.13;;;1.90;;
69795;SDS011;57073;45.650;9.612;2022-07-06T04:08:48;4.13;;;1.73;;
69795;SDS011;57073;45.650;9.612;2022-07-06T04:10:49;3.37;;;1.80;;
69795;SDS011;57073;45.650;9.612;2022-07-06T04:12:49;3.67;;;1.90;;
69795;SDS011;57073;45.650;9.612;2022-07-06T04:14:49;5.53;;;1.70;;
69795;SDS011;57073;45.650;9.612;2022-07-06T04:16:49;2.07;;;1.50;;
69795;SDS011;57073;45.650;9.612;2022-07-06T04:18:50;2.37;;;1.53;;
69795;SDS011;57073;45.650;9.612;2022-07-06T04:20:50;4.13;;;2.00;;
69795;SDS011;57073;45.650;9.612;2022-07-06T04:22:50;2.60;;;1.60;;
69795;SDS011;57073;45.650;9.612;2022-07-06T04:24:51;2.67;;;1.75;;
69795;SDS011;57073;45.650;9.612;2022-07-06T04:26:51;4.40;;;1.83;;
69795;SDS011;57073;45.650;9.612;2022-07-06T04:28:51;2.90;;;1.70;;
69795;SDS011;57073;45.650;9.612;2022-07-06T04:30:51;4.43;;;1.70;;
69795;SDS011;57073;45.650;9.612;2022-07-06T04:32:52;2.63;;;1.53;;
69795;SDS011;57073;45.650;9.612;2022-07-06T04:34:52;3.13;;;1.60;;
69795;SDS011;57073;45.650;9.612;2022-07-06T04:36:52;4.50;;;1.47;;
69795;SDS011;57073;45.650;9.612;2022-07-06T04:38:52;3.17;;;1.80;;
69795;SDS011;57073;45.650;9.612;2022-07-06T04:40:53;2.23;;;1.63;;
69795;SDS011;57073;45.650;9.612;2022-07-06T04:42:53;3.60;;;1.50;;
69795;SDS011;57073;45.650;9.612;2022-07-06T04:44:53;4.53;;;1.60;;
69795;SDS011;57073;45.650;9.612;2022-07-06T04:46:53;3.97;;;1.70;;
69795;SDS011;57073;45.650;9.612;2022-07-06T04:48:54;3.80;;;1.50;;
69795;SDS011;57073;45.650;9.612;2022-07-06T04:50:54;4.07;;;1.40;;
69795;SDS011;57073;45.650;9.612;2022-07-06T04:52:54;2.65;;;1.70;;
69795;SDS011;57073;45.650;9.612;2022-07-06T04:54:55;3.67;;;1.50;;
69795;SDS011;57073;45.650;9.612;2022-07-06T04:56:55;2.73;;;1.50;;
69795;SDS011;57073;45.650;9.612;2022-07-06T04:58:55;2.30;;;1.50;;
69795;SDS011;57073;45.650;9.612;2022-07-06T05:00:55;2.37;;;1.50;;
69795;SDS011;57073;45.650;9.612;2022-07-06T05:02:55;3.43;;;1.70;;
69795;SDS011;57073;45.650;9.612;2022-07-06T05:04:56;4.13;;;1.70;;
69795;SDS011;57073;45.650;9.612;2022-07-06T05:06:56;4.63;;;1.93;;
69795;SDS011;57073;45.650;9.612;2022-07-06T05:08:56;2.80;;;1.90;;
69795;SDS011;57073;45.650;9.612;2022-07-06T05:10:59;3.77;;;1.90;;
69795;SDS011;57073;45.650;9.612;2022-07-06T05:12:59;2.45;;;1.60;;
69795;SDS011;57073;45.650;9.612;2022-07-06T05:15:00;3.73;;;1.53;;
69795;SDS011;57073;45.650;9.612;2022-07-06T05:17:00;2.60;;;1.77;;
69795;SDS011;57073;45.650;9.612;2022-07-06T05:19:00;3.13;;;1.40;;
69795;SDS011;57073;45.650;9.612;2022-07-06T05:21:00;3.30;;;1.90;;
69795;SDS011;57073;45.650;9.612;2022-07-06T05:23:01;3.67;;;1.73;;
69795;SDS011;57073;45.650;9.612;2022-07-06T05:25:01;2.97;;;2.00;;
69795;SDS011;57073;45.650;9.612;2022-07-06T05:27:01;3.07;;;2.27;;
69795;SDS011;57073;45.650;9.612;2022-07-06T05:29:02;3.40;;;1.80;;
69795;SDS011;57073;45.650;9.612;2022-07-06T05:31:02;4.83;;;2.10;;
69795;SDS011;57073;45.650;9.612;2022-07-06T05:33:02;3.30;;;1.80;;
69795;SDS011;57073;45.650;9.612;2022-07-06T05:35:02;3.90;;;1.90;;
69795;SDS011;57073;45.650;9.612;2022-07-06T05:37:03;2.43;;;1.60;;
69795;SDS011;57073;45.650;9.612;2022-07-06T05:39:03;4.47;;;2.30;;
69795;SDS011;57073;45.650;9.612;2022-07-06T05:41:03;4.20;;;2.60;;
69795;SDS011;57073;45.650;9.612;2022-07-06T05:43:03;3.93;;;2.07;;
69795;SDS011;57073;45.650;9.612;2022-07-06T05:45:04;3.33;;;2.37;;
69795;SDS011;57073;45.650;9.612;2022-07-06T05:47:05;4.05;;;2.45;;
69795;SDS011;57073;45.650;9.612;2022-07-06T05:49:24;7.20;;;2.40;;
69795;SDS011;57073;45.650;9.612;2022-07-06T05:51:47;4.40;;;2.10;;
69795;SDS011;57073;45.650;9.612;2022-07-06T05:53:47;4.17;;;2.40;;
69795;SDS011;57073;45.650;9.612;2022-07-06T05:55:48;4.30;;;2.40;;
69795;SDS011;57073;45.650;9.612;2022-07-06T05:57:48;4.13;;;2.40;;
69795;SDS011;57073;45.650;9.612;2022-07-06T05:59:50;5.72;;;2.60;;
69795;SDS011;57073;45.650;9.612;2022-07-06T06:01:50;3.77;;;2.33;;
69795;SDS011;57073;45.650;9.612;2022-07-06T06:03:50;5.90;;;2.40;;
69795;SDS011;57073;45.650;9.612;2022-07-06T06:05:50;3.73;;;2.53;;
69795;SDS011;57073;45.650;9.612;2022-07-06T06:07:51;4.03;;;2.50;;
69795;SDS011;57073;45.650;9.612;2022-07-06T06:09:52;5.37;;;2.47;;
69795;SDS011;57073;45.650;9.612;2022-07-06T06:11:52;7.83;;;2.30;;
69795;SDS011;57073;45.650;9.612;2022-07-06T06:13:52;5.87;;;2.50;;
69795;SDS011;57073;45.650;9.612;2022-07-06T06:15:53;4.17;;;2.43;;
69795;SDS011;57073;45.650;9.612;2022-07-06T06:17:53;3.07;;;2.13;;
69795;SDS011;57073;45.650;9.612;2022-07-06T06:19:53;8.53;;;2.50;;
69795;SDS011;57073;45.650;9.612;2022-07-06T06:21:53;8.00;;;2.60;;
69795;SDS011;57073;45.650;9.612;2022-07-06T06:23:54;4.30;;;2.10;;
69795;SDS011;57073;45.650;9.612;2022-07-06T06:25:54;5.43;;;2.30;;
69795;SDS011;57073;45.650;9.612;2022-07-06T06:27:54;8.03;;;2.73;;
69795;SDS011;57073;45.650;9.612;2022-07-06T06:29:54;4.63;;;2.40;;
69795;SDS011;57073;45.650;9.612;2022-07-06T06:31:55;4.43;;;2.20;;
69795;SDS011;57073;45.650;9.612;2022-07-06T06:33:55;5.87;;;2.53;;
69795;SDS011;57073;45.650;9.612;2022-07-06T06:35:55;6.60;;;2.88;;
69795;SDS011;57073;45.650;9.612;2022-07-06T06:37:55;5.77;;;2.37;;
69795;SDS011;57073;45.650;9.612;2022-07-06T06:39:56;4.53;;;2.50;;
69795;SDS011;57073;45.650;9.612;2022-07-06T06:41:56;6.97;;;2.90;;
69795;SDS011;57073;45.650;9.612;2022-07-06T06:43:56;4.97;;;2.70;;
69795;SDS011;57073;45.650;9.612;2022-07-06T06:45:56;5.50;;;2.93;;
69795;SDS011;57073;45.650;9.612;2022-07-06T06:47:57;4.07;;;2.33;;
69795;SDS011;57073;45.650;9.612;2022-07-06T06:49:58;4.35;;;2.75;;
69795;SDS011;57073;45.650;9.612;2022-07-06T06:51:58;4.63;;;2.50;;
69795;SDS011;57073;45.650;9.612;2022-07-06T06:53:58;3.57;;;2.13;;
69795;SDS011;57073;45.650;9.612;2022-07-06T06:55:58;5.07;;;2.57;;
69795;SDS011;57073;45.650;9.612;2022-07-06T06:57:58;4.60;;;2.20;;
69795;SDS011;57073;45.650;9.612;2022-07-06T06:59:59;4.10;;;2.20;;
69795;SDS011;57073;45.650;9.612;2022-07-06T07:01:59;6.40;;;2.30;;
69795;SDS011;57073;45.650;9.612;2022-07-06T07:03:59;3.03;;;2.20;;
69795;SDS011;57073;45.650;9.612;2022-07-06T07:06:00;2.67;;;2.13;;
69795;SDS011;57073;45.650;9.612;2022-07-06T07:08:00;5.60;;;2.20;;
69795;SDS011;57073;45.650;9.612;2022-07-06T07:10:00;3.83;;;2.50;;
69795;SDS011;57073;45.650;9.612;2022-07-06T07:12:03;6.50;;;2.40;;
69795;SDS011;57073;45.650;9.612;2022-07-06T07:14:03;3.97;;;2.58;;
69795;SDS011;57073;45.650;9.612;2022-07-06T07:16:04;5.53;;;2.70;;
69795;SDS011;57073;45.650;9.612;2022-07-06T07:18:04;4.37;;;2.10;;
69795;SDS011;57073;45.650;9.612;2022-07-06T07:20:05;4.43;;;2.47;;
69795;SDS011;57073;45.650;9.612;2022-07-06T07:22:05;5.20;;;2.43;;
69795;SDS011;57073;45.650;9.612;2022-07-06T07:24:06;4.53;;;2.40;;
69795;SDS011;57073;45.650;9.612;2022-07-06T07:26:07;4.85;;;2.30;;
69795;SDS011;57073;45.650;9.612;2022-07-06T07:28:07;3.67;;;2.20;;
69795;SDS011;57073;45.650;9.612;2022-07-06T07:30:08;3.83;;;2.40;;
69795;SDS011;57073;45.650;9.612;2022-07-06T07:32:08;5.15;;;2.30;;
69795;SDS011;57073;45.650;9.612;2022-07-06T07:34:08;4.50;;;2.40;;
69795;SDS011;57073;45.650;9.612;2022-07-06T07:36:08;7.73;;;2.50;;
69795;SDS011;57073;45.650;9.612;2022-07-06T07:38:09;3.37;;;2.40;;
69795;SDS011;57073;45.650;9.612;2022-07-06T07:40:09;4.37;;;2.50;;
69795;SDS011;57073;45.650;9.612;2022-07-06T07:42:09;5.87;;;2.40;;
69795;SDS011;57073;45.650;9.612;2022-07-06T07:44:10;6.07;;;2.60;;
69795;SDS011;57073;45.650;9.612;2022-07-06T07:46:10;4.97;;;3.03;;
69795;SDS011;57073;45.650;9.612;2022-07-06T07:48:10;5.43;;;3.17;;
69795;SDS011;57073;45.650;9.612;2022-07-06T07:50:11;9.27;;;3.10;;
69795;SDS011;57073;45.650;9.612;2022-07-06T07:52:11;4.80;;;2.73;;
69795;SDS011;57073;45.650;9.612;2022-07-06T07:54:11;4.60;;;2.87;;
69795;SDS011;57073;45.650;9.612;2022-07-06T07:56:12;10.27;;;3.20;;
69795;SDS011;57073;45.650;9.612;2022-07-06T07:58:12;5.47;;;2.80;;
69795;SDS011;57073;45.650;9.612;2022-07-06T08:00:12;3.80;;;2.80;;
69795;SDS011;57073;45.650;9.612;2022-07-06T08:02:13;4.77;;;2.60;;
69795;SDS011;57073;45.650;9.612;2022-07-06T08:04:13;5.83;;;2.40;;
69795;SDS011;57073;45.650;9.612;2022-07-06T08:06:13;6.07;;;2.60;;
69795;SDS011;57073;45.650;9.612;2022-07-06T08:08:14;4.20;;;2.23;;
69795;SDS011;57073;45.650;9.612;2022-07-06T08:10:14;4.63;;;2.70;;
69795;SDS011;57073;45.650;9.612;2022-07-06T08:12:14;5.23;;;2.40;;
69795;SDS011;57073;45.650;9.612;2022-07-06T08:14:15;7.23;;;2.57;;
69795;SDS011;57073;45.650;9.612;2022-07-06T08:16:16;5.07;;;2.50;;
69795;SDS011;57073;45.650;9.612;2022-07-06T08:18:17;3.67;;;2.50;;
69795;SDS011;57073;45.650;9.612;2022-07-06T08:20:17;4.10;;;2.17;;
69795;SDS011;57073;45.650;9.612;2022-07-06T08:22:17;4.17;;;2.20;;
69795;SDS011;57073;45.650;9.612;2022-07-06T08:24:17;6.03;;;2.47;;
69795;SDS011;57073;45.650;9.612;2022-07-06T08:26:18;5.50;;;2.33;;
69795;SDS011;57073;45.650;9.612;2022-07-06T08:28:18;3.83;;;2.17;;
69795;SDS011;57073;45.650;9.612;2022-07-06T08:30:18;3.83;;;1.90;;
69795;SDS011;57073;45.650;9.612;2022-07-06T08:32:19;3.93;;;2.10;;
69795;SDS011;57073;45.650;9.612;2022-07-06T08:34:19;3.53;;;2.35;;
69795;SDS011;57073;45.650;9.612;2022-07-06T08:36:20;3.23;;;1.90;;
69795;SDS011;57073;45.650;9.612;2022-07-06T08:38:20;4.27;;;2.40;;
69795;SDS011;57073;45.650;9.612;2022-07-06T08:40:20;5.23;;;2.80;;
69795;SDS011;57073;45.650;9.612;2022-07-06T08:42:21;5.93;;;2.50;;
69795;SDS011;57073;45.650;9.612;2022-07-06T08:44:21;3.53;;;2.10;;
69795;SDS011;57073;45.650;9.612;2022-07-06T08:46:23;6.00;;;2.43;;
69795;SDS011;57073;45.650;9.612;2022-07-06T08:48:23;6.53;;;2.20;;
69795;SDS011;57073;45.650;9.612;2022-07-06T08:50:24;3.70;;;2.10;;
69795;SDS011;57073;45.650;9.612;2022-07-06T08:52:25;3.45;;;2.30;;
69795;SDS011;57073;45.650;9.612;2022-07-06T08:54:25;4.13;;;2.53;;
69795;SDS011;57073;45.650;9.612;2022-07-06T08:56:26;4.90;;;2.60;;
69795;SDS011;57073;45.650;9.612;2022-07-06T08:58:27;6.60;;;2.40;;
69795;SDS011;57073;45.650;9.612;2022-07-06T09:00:28;3.10;;;2.30;;
69795;SDS011;57073;45.650;9.612;2022-07-06T09:02:28;4.07;;;2.40;;
69795;SDS011;57073;45.650;9.612;2022-07-06T09:04:28;4.70;;;2.60;;
69795;SDS011;57073;45.650;9.612;2022-07-06T09:06:29;3.50;;;2.13;;
69795;SDS011;57073;45.650;9.612;2022-07-06T09:08:30;5.93;;;2.50;;
69795;SDS011;57073;45.650;9.612;2022-07-06T09:10:31;5.82;;;2.90;;
69795;SDS011;57073;45.650;9.612;2022-07-06T09:12:31;5.07;;;2.27;;
69795;SDS011;57073;45.650;9.612;2022-07-06T09:14:31;6.27;;;2.20;;
69795;SDS011;57073;45.650;9.612;2022-07-06T09:16:31;4.37;;;2.20;;
69795;SDS011;57073;45.650;9.612;2022-07-06T09:18:35;4.53;;;2.53;;
69795;SDS011;57073;45.650;9.612;2022-07-06T09:20:36;5.93;;;2.92;;
69795;SDS011;57073;45.650;9.612;2022-07-06T09:22:37;3.37;;;2.37;;
69795;SDS011;57073;45.650;9.612;2022-07-06T09:24:43;5.22;;;2.63;;
69795;SDS011;57073;45.650;9.612;2022-07-06T09:26:44;3.35;;;2.35;;
69795;SDS011;57073;45.650;9.612;2022-07-06T09:28:45;5.07;;;2.80;;
69795;SDS011;57073;45.650;9.612;2022-07-06T09:30:45;4.97;;;2.60;;
69795;SDS011;57073;45.650;9.612;2022-07-06T09:32:49;3.90;;;2.50;;
69795;SDS011;57073;45.650;9.612;2022-07-06T09:34:50;3.85;;;2.45;;
69795;SDS011;57073;45.650;9.612;2022-07-06T09:36:50;6.77;;;2.83;;
69795;SDS011;57073;45.650;9.612;2022-07-06T09:38:50;3.70;;;2.80;;
69795;SDS011;57073;45.650;9.612;2022-07-06T09:40:51;6.67;;;2.87;;
69795;SDS011;57073;45.650;9.612;2022-07-06T09:42:51;5.03;;;2.60;;
69795;SDS011;57073;45.650;9.612;2022-07-06T09:44:53;4.25;;;2.75;;
69795;SDS011;57073;45.650;9.612;2022-07-06T09:47:00;8.30;;;2.97;;
69795;SDS011;57073;45.650;9.612;2022-07-06T09:49:00;5.57;;;2.67;;
69795;SDS011;57073;45.650;9.612;2022-07-06T09:51:01;5.73;;;2.77;;
69795;SDS011;57073;45.650;9.612;2022-07-06T09:53:06;4.57;;;2.70;;
69795;SDS011;57073;45.650;9.612;2022-07-06T09:55:16;4.18;;;2.40;;
69795;SDS011;57073;45.650;9.612;2022-07-06T09:57:16;5.70;;;2.73;;
69795;SDS011;57073;45.650;9.612;2022-07-06T09:59:20;7.07;;;3.25;;
69795;SDS011;57073;45.650;9.612;2022-07-06T10:01:27;5.53;;;2.87;;
69795;SDS011;57073;45.650;9.612;2022-07-06T10:03:29;7.18;;;2.80;;
69795;SDS011;57073;45.650;9.612;2022-07-06T10:05:30;7.20;;;2.88;;
69795;SDS011;57073;45.650;9.612;2022-07-06T10:07:30;7.53;;;2.90;;
69795;SDS011;57073;45.650;9.612;2022-07-06T10:09:31;6.03;;;2.60;;
69795;SDS011;57073;45.650;9.612;2022-07-06T10:11:31;5.70;;;2.50;;
69795;SDS011;57073;45.650;9.612;2022-07-06T10:13:33;5.90;;;2.70;;
69795;SDS011;57073;45.650;9.612;2022-07-06T10:15:38;3.07;;;2.50;;
69795;SDS011;57073;45.650;9.612;2022-07-06T10:17:38;5.53;;;2.50;;
69795;SDS011;57073;45.650;9.612;2022-07-06T10:19:40;3.53;;;2.40;;
69795;SDS011;57073;45.650;9.612;2022-07-06T10:21:41;3.30;;;2.30;;
69795;SDS011;57073;45.650;9.612;2022-07-06T10:23:41;4.27;;;2.77;;
69795;SDS011;57073;45.650;9.612;2022-07-06T10:25:42;3.58;;;2.30;;
69795;SDS011;57073;45.650;9.612;2022-07-06T10:27:47;6.07;;;2.30;;
69795;SDS011;57073;45.650;9.612;2022-07-06T10:29:47;2.95;;;2.40;;
69795;SDS011;57073;45.650;9.612;2022-07-06T10:31:48;5.37;;;2.70;;
69795;SDS011;57073;45.650;9.612;2022-07-06T10:33:48;5.25;;;2.60;;
69795;SDS011;57073;45.650;9.612;2022-07-06T10:35:49;2.87;;;2.23;;
69795;SDS011;57073;45.650;9.612;2022-07-06T10:40:05;4.25;;;2.50;;
69795;SDS011;57073;45.650;9.612;2022-07-06T10:44:44;3.78;;;2.17;;
69795;SDS011;57073;45.650;9.612;2022-07-06T10:46:55;4.00;;;2.50;;
69795;SDS011;57073;45.650;9.612;2022-07-06T10:48:55;4.72;;;2.40;;
69795;SDS011;57073;45.650;9.612;2022-07-06T10:50:56;3.08;;;2.60;;
69795;SDS011;57073;45.650;9.612;2022-07-06T10:52:59;4.13;;;2.47;;
69795;SDS011;57073;45.650;9.612;2022-07-06T10:54:59;3.20;;;2.17;;
69795;SDS011;57073;45.650;9.612;2022-07-06T10:57:00;5.20;;;2.20;;
69795;SDS011;57073;45.650;9.612;2022-07-06T10:59:09;5.70;;;2.20;;
69795;SDS011;57073;45.650;9.612;2022-07-06T11:01:10;6.95;;;2.60;;
69795;SDS011;57073;45.650;9.612;2022-07-06T11:03:33;4.90;;;2.33;;
69795;SDS011;57073;45.650;9.612;2022-07-06T11:05:39;3.33;;;2.20;;
69795;SDS011;57073;45.650;9.612;2022-07-06T11:07:49;6.10;;;2.22;;
69795;SDS011;57073;45.650;9.612;2022-07-06T11:09:57;4.50;;;2.20;;
69795;SDS011;57073;45.650;9.612;2022-07-06T11:11:57;6.25;;;2.22;;
69795;SDS011;57073;45.650;9.612;2022-07-06T11:14:03;4.73;;;2.60;;
69795;SDS011;57073;45.650;9.612;2022-07-06T11:16:04;3.78;;;2.40;;
69795;SDS011;57073;45.650;9.612;2022-07-06T11:18:11;3.67;;;2.30;;
69795;SDS011;57073;45.650;9.612;2022-07-06T11:20:12;5.03;;;2.38;;
69795;SDS011;57073;45.650;9.612;2022-07-06T11:22:15;2.93;;;2.20;;
69795;SDS011;57073;45.650;9.612;2022-07-06T11:24:16;4.45;;;2.35;;
69795;SDS011;57073;45.650;9.612;2022-07-06T11:26:17;2.65;;;2.25;;
69795;SDS011;57073;45.650;9.612;2022-07-06T11:28:17;4.68;;;2.50;;
69795;SDS011;57073;45.650;9.612;2022-07-06T11:30:18;4.33;;;2.50;;
69795;SDS011;57073;45.650;9.612;2022-07-06T11:32:22;4.87;;;2.60;;
69795;SDS011;57073;45.650;9.612;2022-07-06T11:34:24;3.80;;;2.50;;
69795;SDS011;57073;45.650;9.612;2022-07-06T11:36:25;3.20;;;2.50;;
69795;SDS011;57073;45.650;9.612;2022-07-06T11:38:26;5.63;;;2.47;;
69795;SDS011;57073;45.650;9.612;2022-07-06T11:40:26;4.10;;;2.50;;
69795;SDS011;57073;45.650;9.612;2022-07-06T11:42:26;6.30;;;2.50;;
69795;SDS011;57073;45.650;9.612;2022-07-06T11:44:26;3.20;;;2.17;;
69795;SDS011;57073;45.650;9.612;2022-07-06T11:46:28;2.97;;;2.40;;
69795;SDS011;57073;45.650;9.612;2022-07-06T11:48:29;3.50;;;2.10;;
69795;SDS011;57073;45.650;9.612;2022-07-06T11:50:29;3.97;;;2.50;;
69795;SDS011;57073;45.650;9.612;2022-07-06T11:52:29;2.97;;;2.40;;
69795;SDS011;57073;45.650;9.612;2022-07-06T11:54:31;2.60;;;2.40;;
69795;SDS011;57073;45.650;9.612;2022-07-06T11:56:31;4.03;;;2.28;;
69795;SDS011;57073;45.650;9.612;2022-07-06T11:58:32;4.13;;;2.50;;
69795;SDS011;57073;45.650;9.612;2022-07-06T12:00:33;3.45;;;2.30;;
69795;SDS011;57073;45.650;9.612;2022-07-06T12:02:33;3.80;;;2.53;;
69795;SDS011;57073;45.650;9.612;2022-07-06T12:04:34;3.47;;;2.10;;
69795;SDS011;57073;45.650;9.612;2022-07-06T12:06:34;3.15;;;2.33;;
69795;SDS011;57073;45.650;9.612;2022-07-06T12:08:42;3.40;;;2.07;;
69795;SDS011;57073;45.650;9.612;2022-07-06T12:10:42;4.18;;;2.15;;
69795;SDS011;57073;45.650;9.612;2022-07-06T12:12:42;4.17;;;2.10;;
69795;SDS011;57073;45.650;9.612;2022-07-06T12:14:43;4.33;;;2.27;;